createdAt,value
2022-09-27T00:02:09.099Z,1.65
2022-09-27T00:04:36.619Z,1.20
2022-09-27T00:07:04.082Z,1.27
2022-09-27T00:09:31.498Z,1.35
2022-09-27T00:11:58.946Z,1.50
2022-09-27T00:14:26.359Z,1.25
2022-09-27T00:16:53.836Z,1.25
2022-09-27T00:19:23.815Z,1.30
2022-09-27T00:21:51.449Z,1.45
2022-09-27T00:24:19.886Z,1.80
2022-09-27T00:26:47.774Z,1.42
2022-09-27T00:29:15.814Z,1.42
2022-09-27T00:31:43.571Z,1.30
2022-09-27T00:34:17.606Z,1.50
2022-09-27T00:36:46.862Z,1.60
2022-09-27T00:39:14.745Z,1.35
2022-09-27T00:41:42.595Z,1.25
2022-09-27T00:44:24.899Z,1.45
2022-09-27T00:46:55.124Z,2.03
2022-09-27T00:49:25.290Z,1.30
2022-09-27T00:51:55.880Z,1.30
2022-09-27T00:54:25.755Z,1.10
2022-09-27T00:56:53.495Z,1.30
2022-09-27T00:59:22.675Z,1.30
2022-09-27T01:01:51.078Z,1.85
2022-09-27T01:04:22.597Z,1.20
2022-09-27T01:06:50.039Z,1.23
2022-09-27T01:09:19.111Z,1.25
2022-09-27T01:11:49.413Z,1.10
2022-09-27T01:14:25.212Z,1.13
2022-09-27T01:16:57.074Z,1.10
2022-09-27T01:19:39.447Z,1.13
2022-09-27T01:22:09.638Z,1.10
2022-09-27T01:25:01.326Z,1.10
2022-09-27T01:27:45.594Z,1.20
2022-09-27T01:30:24.744Z,1.20
2022-09-27T01:32:55.279Z,0.93
2022-09-27T01:35:27.005Z,1.10
2022-09-27T01:37:59.104Z,1.10
2022-09-27T01:40:33.339Z,2.03
2022-09-27T01:43:04.960Z,0.80
2022-09-27T01:45:37.266Z,1.00
2022-09-27T01:48:08.532Z,1.00
2022-09-27T01:50:38.445Z,1.00
2022-09-27T01:53:07.610Z,1.85
2022-09-27T01:55:37.574Z,1.20
2022-09-27T01:58:07.779Z,1.25
2022-09-27T02:00:37.417Z,0.80
2022-09-27T02:03:06.987Z,1.00
2022-09-27T02:05:36.313Z,0.82
2022-09-27T02:08:05.562Z,1.10
2022-09-27T02:10:36.470Z,1.17
2022-09-27T02:15:33.717Z,0.77
2022-09-27T02:18:03.126Z,0.95
2022-09-27T02:20:31.888Z,1.00
2022-09-27T02:23:03.987Z,0.98
2022-09-27T02:25:34.807Z,1.00
2022-09-27T02:28:07.415Z,0.90
2022-09-27T02:30:34.933Z,1.00
2022-09-27T02:33:04.056Z,1.10
2022-09-27T02:35:33.563Z,0.80
2022-09-27T02:38:01.570Z,0.90
2022-09-27T02:40:32.789Z,0.82
2022-09-27T02:43:00.773Z,1.20
2022-09-27T02:45:31.600Z,0.98
2022-09-27T02:50:39.638Z,1.00
2022-09-27T02:53:11.350Z,1.23
2022-09-27T02:55:44.568Z,1.10
2022-09-27T02:58:17.858Z,1.20
2022-09-27T03:00:50.159Z,1.30
2022-09-27T03:03:22.287Z,1.10
2022-09-27T03:05:52.968Z,0.90
2022-09-27T03:08:20.547Z,1.20
2022-09-27T03:10:48.267Z,1.02
2022-09-27T03:13:15.716Z,1.15
2022-09-27T03:15:43.173Z,0.88
2022-09-27T03:18:10.628Z,1.23
2022-09-27T03:20:38.041Z,1.15
2022-09-27T03:23:06.847Z,1.40
2022-09-27T03:25:34.257Z,1.27
2022-09-27T03:28:01.859Z,1.40
2022-09-27T03:30:29.274Z,1.23
2022-09-27T03:32:56.701Z,1.23
2022-09-27T03:35:24.160Z,2.00
2022-09-27T03:37:51.631Z,1.80
2022-09-27T03:40:20.482Z,3.70
2022-09-27T03:42:50.007Z,2.83
2022-09-27T03:45:17.724Z,3.42
2022-09-27T03:47:45.203Z,2.10
2022-09-27T03:50:13.161Z,1.67
2022-09-27T03:52:40.865Z,1.63
2022-09-27T03:55:08.604Z,1.85
2022-09-27T03:57:37.389Z,1.17
2022-09-27T04:00:05.025Z,1.52
2022-09-27T04:02:32.574Z,1.55
2022-09-27T04:05:00.106Z,1.15
2022-09-27T04:07:27.531Z,1.38
2022-09-27T04:09:55.310Z,1.30
2022-09-27T04:12:22.788Z,1.60
2022-09-27T04:14:51.565Z,1.23
2022-09-27T04:17:18.978Z,1.45
2022-09-27T04:19:46.392Z,1.50
2022-09-27T04:22:15.439Z,2.55
2022-09-27T04:24:42.893Z,1.45
2022-09-27T04:27:10.320Z,2.80
2022-09-27T04:29:37.740Z,3.30
2022-09-27T04:32:06.521Z,2.53
2022-09-27T04:34:59.581Z,2.53
2022-09-27T04:37:27.994Z,1.75
2022-09-27T04:39:55.445Z,1.40
2022-09-27T04:42:22.874Z,1.23
2022-09-27T04:44:50.321Z,1.30
2022-09-27T04:47:21.083Z,1.10
2022-09-27T04:49:49.574Z,1.10
2022-09-27T04:52:17.039Z,1.10
2022-09-27T04:54:44.452Z,1.17
2022-09-27T04:57:12.821Z,1.20
2022-09-27T04:59:40.586Z,1.17
2022-09-27T05:02:08.056Z,1.17
2022-09-27T05:04:36.885Z,1.38
2022-09-27T05:07:05.027Z,1.13
2022-09-27T05:09:32.464Z,1.23
2022-09-27T05:12:00.127Z,1.13
2022-09-27T05:14:27.603Z,1.13
2022-09-27T05:16:55.696Z,1.40
2022-09-27T05:19:23.766Z,1.35
2022-09-27T05:21:52.532Z,1.77
2022-09-27T05:24:21.322Z,1.27
2022-09-27T05:26:48.775Z,1.30
2022-09-27T05:29:17.647Z,1.30
2022-09-27T05:31:45.118Z,1.20
2022-09-27T05:34:12.906Z,1.15
2022-09-27T05:36:40.326Z,1.40
2022-09-27T05:39:09.300Z,1.20
2022-09-27T05:41:36.844Z,1.40
2022-09-27T05:44:05.023Z,1.20
2022-09-27T05:46:32.503Z,1.20
2022-09-27T05:49:00.131Z,1.42
2022-09-27T05:51:28.293Z,1.30
2022-09-27T05:53:55.840Z,1.30
2022-09-27T05:56:24.993Z,1.45
2022-09-27T05:58:52.398Z,1.38
2022-09-27T06:01:20.011Z,1.17
2022-09-27T06:03:47.727Z,1.33
2022-09-27T06:06:15.489Z,1.42
2022-09-27T06:08:43.112Z,1.30
2022-09-27T06:11:12.424Z,1.60
2022-09-27T06:13:41.227Z,1.40
2022-09-27T06:16:09.720Z,1.77
2022-09-27T06:18:37.635Z,2.10
2022-09-27T06:21:05.702Z,2.50
2022-09-27T06:23:33.698Z,1.63
2022-09-27T06:26:02.541Z,2.08
2022-09-27T06:28:30.071Z,1.80
2022-09-27T06:31:00.391Z,2.35
2022-09-27T06:33:28.962Z,1.73
2022-09-27T06:35:56.410Z,2.20
2022-09-27T06:38:24.860Z,1.90
2022-09-27T06:40:52.358Z,2.10
2022-09-27T06:43:21.147Z,2.05
2022-09-27T06:45:48.838Z,1.90
2022-09-27T06:48:17.818Z,2.20
2022-09-27T06:50:46.239Z,2.10
2022-09-27T06:53:14.399Z,1.90
2022-09-27T06:55:41.860Z,1.95
2022-09-27T06:58:28.935Z,1.90
2022-09-27T07:00:56.443Z,1.98
2022-09-27T07:03:29.514Z,1.67
2022-09-27T07:06:00.755Z,1.75
2022-09-27T07:08:29.160Z,1.85
2022-09-27T07:10:57.082Z,1.90
2022-09-27T07:13:24.582Z,2.10
2022-09-27T07:15:51.998Z,1.92
2022-09-27T07:18:20.566Z,1.73
2022-09-27T07:20:50.062Z,1.70
2022-09-27T07:23:17.867Z,2.03
2022-09-27T07:25:45.339Z,4.30
2022-09-27T07:28:18.409Z,3.30
2022-09-27T07:30:48.632Z,2.20
2022-09-27T07:33:16.187Z,2.05
2022-09-27T07:35:43.967Z,1.88
2022-09-27T07:38:14.001Z,1.65
2022-09-27T07:40:42.058Z,2.03
2022-09-27T07:43:10.303Z,2.00
2022-09-27T07:45:37.914Z,1.83
2022-09-27T07:48:06.163Z,1.95
2022-09-27T07:50:33.871Z,2.33
2022-09-27T07:53:01.322Z,1.85
2022-09-27T07:55:30.108Z,2.40
2022-09-27T07:58:03.064Z,2.22
2022-09-27T08:00:31.005Z,1.77
2022-09-27T08:02:58.764Z,2.83
2022-09-27T08:05:26.335Z,1.48
2022-09-27T08:07:57.743Z,1.73
2022-09-27T08:10:27.274Z,1.98
2022-09-27T08:12:56.247Z,1.52
2022-09-27T08:15:23.682Z,1.58
2022-09-27T08:17:51.733Z,1.67
2022-09-27T08:20:19.597Z,1.67
2022-09-27T08:22:47.047Z,2.58
2022-09-27T08:25:15.478Z,2.40
2022-09-27T08:27:43.011Z,2.42
2022-09-27T08:30:12.358Z,2.10
2022-09-27T08:32:39.831Z,2.13
2022-09-27T08:35:08.318Z,1.95
2022-09-27T08:37:35.791Z,2.33
2022-09-27T08:40:03.750Z,1.90
2022-09-27T08:42:36.777Z,2.08
2022-09-27T08:45:08.287Z,1.83
2022-09-27T08:47:38.813Z,1.80
2022-09-27T08:50:11.157Z,1.90
2022-09-27T08:52:41.244Z,1.98
2022-09-27T08:55:18.275Z,1.60
2022-09-27T08:57:50.546Z,2.38
2022-09-27T09:00:18.195Z,1.88
2022-09-27T09:02:47.087Z,1.92
2022-09-27T09:05:18.487Z,1.55
2022-09-27T09:07:52.647Z,1.90
2022-09-27T09:10:40.170Z,1.92
2022-09-27T09:13:14.215Z,1.42
2022-09-27T09:15:58.071Z,1.48
2022-09-27T09:18:32.173Z,1.65
2022-09-27T09:21:04.317Z,1.40
2022-09-27T09:23:40.922Z,1.50
2022-09-27T09:26:12.513Z,1.45
2022-09-27T09:28:45.563Z,1.63
2022-09-27T09:31:16.387Z,1.67
2022-09-27T09:36:16.776Z,1.30
2022-09-27T09:38:46.058Z,1.42
2022-09-27T09:41:17.598Z,1.50
2022-09-27T09:43:48.152Z,1.20
2022-09-27T09:46:17.714Z,0.90
2022-09-27T09:48:46.864Z,1.10
2022-09-27T09:51:18.879Z,1.23
2022-09-27T09:53:49.210Z,1.00
2022-09-27T09:56:18.440Z,1.15
2022-09-27T09:58:48.105Z,1.00
2022-09-27T10:01:19.360Z,1.00
2022-09-27T10:03:47.007Z,1.00
2022-09-27T10:06:16.412Z,1.08
2022-09-27T10:08:44.357Z,1.10
2022-09-27T10:11:18.246Z,1.17
2022-09-27T10:13:45.696Z,1.10
2022-09-27T10:16:15.436Z,1.10
2022-09-27T10:18:47.638Z,1.00
2022-09-27T10:21:21.032Z,1.23
2022-09-27T10:24:10.427Z,0.90
2022-09-27T10:26:43.182Z,0.90
2022-09-27T10:29:17.545Z,0.90
2022-09-27T10:31:47.894Z,1.52
2022-09-27T10:34:19.715Z,1.20
2022-09-27T10:37:02.225Z,1.00
2022-09-27T10:39:29.638Z,1.20
2022-09-27T10:41:57.187Z,1.08
2022-09-27T10:44:26.452Z,1.30
2022-09-27T10:46:54.388Z,1.10
2022-09-27T10:49:23.505Z,1.20
2022-09-27T10:51:53.598Z,0.95
2022-09-27T10:54:22.364Z,1.13
2022-09-27T10:56:56.375Z,1.00
2022-09-27T10:59:24.107Z,0.90
2022-09-27T11:01:52.932Z,1.02
2022-09-27T11:04:22.253Z,1.00
2022-09-27T11:06:50.047Z,1.10
2022-09-27T11:09:23.227Z,1.13
2022-09-27T11:11:50.919Z,1.23
2022-09-27T11:14:19.705Z,1.50
2022-09-27T11:16:55.907Z,1.30
2022-09-27T11:19:29.038Z,1.30
2022-09-27T11:22:01.168Z,0.98
2022-09-27T11:24:35.907Z,1.00
2022-09-27T11:27:08.262Z,1.25
2022-09-27T11:29:40.725Z,0.98
2022-09-27T11:32:14.351Z,1.10
2022-09-27T11:34:54.395Z,1.02
2022-09-27T11:37:25.196Z,1.10
2022-09-27T11:40:02.507Z,1.15
2022-09-27T11:45:34.157Z,1.17
2022-09-27T11:48:00.410Z,1.30
2022-09-27T11:50:36.028Z,1.30
2022-09-27T11:53:09.537Z,1.17
2022-09-27T11:55:44.226Z,0.70
2022-09-27T11:58:19.256Z,0.70
2022-09-27T12:00:53.962Z,0.80
2022-09-27T12:03:36.250Z,0.60
2022-09-27T12:06:07.842Z,0.52
2022-09-27T12:08:44.143Z,0.57
2022-09-27T12:11:16.238Z,0.70
2022-09-27T12:13:46.086Z,0.70
2022-09-27T12:16:16.053Z,0.70
2022-09-27T12:18:48.027Z,0.80
2022-09-27T12:21:18.833Z,0.88
2022-09-27T12:23:47.426Z,0.80
2022-09-27T12:26:18.196Z,0.88
2022-09-27T12:28:50.570Z,1.00
2022-09-27T12:31:30.131Z,1.10
2022-09-27T12:34:02.408Z,1.52
2022-09-27T12:36:38.014Z,1.08
2022-09-27T12:39:08.754Z,1.38
2022-09-27T12:41:39.144Z,1.63
2022-09-27T12:44:06.605Z,1.50
2022-09-27T12:46:39.965Z,1.40
2022-09-27T12:49:11.163Z,1.30
2022-09-27T12:51:40.551Z,1.50
2022-09-27T12:54:25.234Z,1.80
2022-09-27T12:56:58.035Z,1.52
2022-09-27T12:59:37.067Z,1.63
2022-09-27T13:02:19.037Z,1.60
2022-09-27T13:04:53.825Z,1.40
2022-09-27T13:07:27.371Z,1.50
2022-09-27T13:10:02.631Z,1.33
2022-09-27T13:12:32.183Z,1.83
2022-09-27T13:15:01.047Z,1.90
2022-09-27T13:17:49.180Z,1.00
2022-09-27T13:20:33.856Z,1.05
2022-09-27T13:23:01.972Z,1.20
2022-09-27T13:25:51.766Z,1.00
2022-09-27T13:28:58.345Z,1.25
2022-09-27T13:31:40.623Z,1.15
2022-09-27T13:34:29.326Z,1.17
2022-09-27T13:36:57.341Z,1.80
2022-09-27T13:39:24.826Z,1.85
2022-09-27T13:42:09.029Z,1.60
2022-09-27T13:44:41.716Z,1.38
2022-09-27T13:47:16.533Z,1.30
2022-09-27T13:49:47.827Z,1.30
2022-09-27T13:52:20.671Z,1.52
2022-09-27T13:54:52.784Z,1.02
2022-09-27T13:57:35.045Z,1.05
2022-09-27T14:00:05.031Z,0.95
2022-09-27T14:02:33.152Z,1.10
2022-09-27T14:05:02.508Z,1.13
2022-09-27T14:07:35.112Z,0.77
2022-09-27T14:10:02.941Z,0.90
2022-09-27T14:12:33.433Z,1.10
2022-09-27T14:15:02.660Z,1.13
2022-09-27T14:17:31.250Z,1.20
2022-09-27T14:19:58.708Z,1.05
2022-09-27T14:22:27.421Z,0.85
2022-09-27T14:24:55.726Z,1.05
2022-09-27T14:27:24.021Z,0.90
2022-09-27T14:29:53.287Z,1.00
2022-09-27T14:32:21.850Z,0.90
2022-09-27T14:35:03.658Z,1.02
2022-09-27T14:37:31.675Z,0.95
2022-09-27T14:40:00.447Z,1.27
2022-09-27T14:42:32.364Z,1.10
2022-09-27T14:45:02.097Z,1.10
2022-09-27T14:47:29.602Z,0.90
2022-09-27T14:49:58.964Z,0.90
2022-09-27T14:52:29.999Z,0.80
2022-09-27T14:54:59.953Z,1.20
2022-09-27T14:57:28.507Z,0.93
2022-09-27T14:59:57.591Z,0.93
2022-09-27T15:02:26.373Z,0.85
2022-09-27T15:04:54.527Z,0.70
2022-09-27T15:07:22.523Z,0.90
2022-09-27T15:09:50.818Z,1.00
2022-09-27T15:12:24.804Z,1.15
2022-09-27T15:14:54.248Z,1.27
2022-09-27T15:17:22.788Z,1.10
2022-09-27T15:20:03.747Z,1.50
2022-09-27T15:22:36.055Z,1.27
2022-09-27T15:25:08.942Z,1.30
2022-09-27T15:27:38.674Z,1.30
2022-09-27T15:30:06.478Z,1.40
2022-09-27T15:32:33.967Z,1.48
2022-09-27T15:35:08.002Z,1.70
2022-09-27T15:37:36.671Z,1.70
2022-09-27T15:40:19.599Z,1.85
2022-09-27T15:42:57.692Z,2.45
2022-09-27T15:45:29.088Z,2.10
2022-09-27T15:47:56.537Z,1.83
2022-09-27T15:50:34.636Z,1.88
2022-09-27T15:53:02.870Z,1.98
2022-09-27T15:55:30.519Z,2.33
2022-09-27T15:58:02.026Z,2.30
2022-09-27T16:00:30.581Z,2.70
2022-09-27T16:02:58.193Z,2.50
2022-09-27T16:05:27.041Z,2.53
2022-09-27T16:07:54.598Z,3.05
2022-09-27T16:10:23.483Z,2.47
2022-09-27T16:12:51.176Z,1.90
2022-09-27T16:15:19.920Z,2.25
2022-09-27T16:17:47.286Z,2.05
2022-09-27T16:20:17.835Z,2.75
2022-09-27T16:22:45.363Z,2.20
2022-09-27T16:25:13.076Z,2.30
2022-09-27T16:27:40.979Z,1.90
2022-09-27T16:30:08.994Z,1.95
2022-09-27T16:32:42.482Z,2.00
2022-09-27T16:35:10.492Z,1.90
2022-09-27T16:37:38.021Z,2.30
2022-09-27T16:40:06.413Z,2.58
2022-09-27T16:42:33.776Z,2.60
2022-09-27T16:45:04.836Z,2.33
2022-09-27T16:47:35.402Z,2.05
2022-09-27T16:50:22.011Z,1.83
2022-09-27T16:52:50.062Z,2.30
2022-09-27T16:55:20.937Z,2.17
2022-09-27T17:00:16.119Z,2.20
2022-09-27T17:02:47.096Z,2.25
2022-09-27T17:05:16.405Z,2.40
2022-09-27T17:07:43.790Z,2.95
2022-09-27T17:10:11.227Z,2.58
2022-09-27T17:12:38.603Z,2.42
2022-09-27T17:15:06.442Z,2.72
2022-09-27T17:17:33.836Z,3.05
2022-09-27T17:20:01.372Z,3.88
2022-09-27T17:22:30.085Z,3.70
2022-09-27T17:24:57.670Z,3.88
2022-09-27T17:27:27.187Z,4.18
2022-09-27T17:29:54.551Z,3.85
2022-09-27T17:32:24.175Z,3.65
2022-09-27T17:34:51.568Z,4.70
2022-09-27T17:37:18.957Z,4.50
2022-09-27T17:39:47.709Z,5.18
2022-09-27T17:42:15.100Z,4.55
2022-09-27T17:44:42.732Z,4.50
2022-09-27T17:47:27.864Z,4.40
2022-09-27T17:50:12.843Z,4.82
2022-09-27T17:52:40.216Z,4.40
2022-09-27T17:55:09.398Z,4.25
2022-09-27T17:57:36.754Z,4.72
2022-09-27T18:00:05.691Z,4.45
2022-09-27T18:02:33.120Z,5.50
2022-09-27T18:05:00.611Z,5.60
2022-09-27T18:07:29.008Z,4.38
2022-09-27T18:09:57.018Z,4.28
2022-09-27T18:12:31.903Z,4.00
2022-09-27T18:14:59.576Z,3.42
2022-09-27T18:17:27.800Z,4.03
2022-09-27T18:19:56.884Z,4.10
2022-09-27T18:22:25.769Z,4.30
2022-09-27T18:24:53.188Z,4.07
2022-09-27T18:27:21.114Z,4.35
2022-09-27T18:29:49.805Z,4.07
2022-09-27T18:32:17.341Z,4.30
2022-09-27T18:34:44.764Z,4.30
2022-09-27T18:37:12.159Z,4.53
2022-09-27T18:39:40.196Z,4.20
2022-09-27T18:42:08.902Z,3.60
2022-09-27T18:44:36.258Z,3.28
2022-09-27T18:47:05.123Z,3.80
2022-09-27T18:49:34.263Z,3.33
2022-09-27T18:52:02.608Z,3.10
2022-09-27T18:54:30.063Z,2.92
2022-09-27T18:56:57.374Z,3.40
2022-09-27T18:59:24.719Z,3.30
2022-09-27T19:01:52.167Z,3.30
2022-09-27T19:04:23.978Z,4.20
2022-09-27T19:06:51.945Z,3.97
2022-09-27T19:09:19.325Z,2.47
2022-09-27T19:11:46.736Z,2.10
2022-09-27T19:14:15.942Z,1.52
2022-09-27T19:16:43.348Z,1.67
2022-09-27T19:19:10.713Z,1.40
2022-09-27T19:21:39.474Z,1.42
2022-09-27T19:24:06.979Z,1.40
2022-09-27T19:26:34.395Z,1.20
2022-09-27T19:29:02.438Z,1.35
2022-09-27T19:31:30.308Z,1.20
2022-09-27T19:34:00.446Z,1.45
2022-09-27T19:36:28.406Z,1.85
2022-09-27T19:38:58.481Z,0.93
2022-09-27T19:41:26.714Z,1.30
2022-09-27T19:43:54.591Z,1.50
2022-09-27T19:46:22.494Z,1.10
2022-09-27T19:48:50.479Z,0.98
2022-09-27T19:51:18.947Z,1.85
2022-09-27T19:53:46.303Z,1.10
2022-09-27T19:56:15.308Z,1.88
2022-09-27T19:58:43.151Z,1.10
2022-09-27T20:01:11.472Z,1.30
2022-09-27T20:03:40.173Z,1.60
2022-09-27T20:06:08.796Z,1.20
2022-09-27T20:08:36.164Z,1.20
2022-09-27T20:11:06.541Z,1.00
2022-09-27T20:13:36.080Z,1.38
2022-09-27T20:16:04.483Z,1.33
2022-09-27T20:18:32.155Z,0.80
2022-09-27T20:21:00.338Z,1.20
2022-09-27T20:23:28.079Z,1.30
2022-09-27T20:25:59.766Z,0.93
2022-09-27T20:28:27.530Z,0.82
2022-09-27T20:31:00.263Z,1.08
2022-09-27T20:33:43.917Z,0.90
2022-09-27T20:36:12.380Z,1.10
2022-09-27T20:38:40.536Z,1.08
2022-09-27T20:41:07.950Z,1.00
2022-09-27T20:43:35.376Z,0.93
2022-09-27T20:46:05.170Z,1.00
2022-09-27T20:48:32.719Z,1.63
2022-09-27T20:51:04.472Z,0.90
2022-09-27T20:53:32.668Z,0.77
2022-09-27T20:56:02.575Z,1.27
2022-09-27T20:58:30.448Z,0.90
2022-09-27T21:00:58.635Z,0.70
2022-09-27T21:03:27.395Z,1.10
2022-09-27T21:05:55.501Z,1.00
2022-09-27T21:08:22.895Z,1.20
2022-09-27T21:10:52.834Z,1.00
2022-09-27T21:13:20.710Z,1.10
2022-09-27T21:15:48.541Z,1.10
2022-09-27T21:18:15.918Z,1.30
2022-09-27T21:20:44.699Z,1.42
2022-09-27T21:23:12.079Z,1.30
2022-09-27T21:25:39.443Z,1.40
2022-09-27T21:28:06.802Z,1.50
2022-09-27T21:30:36.157Z,1.73
2022-09-27T21:33:03.887Z,1.77
2022-09-27T21:35:31.232Z,1.33
2022-09-27T21:38:00.321Z,1.40
2022-09-27T21:40:27.804Z,1.48
2022-09-27T21:42:57.784Z,1.52
2022-09-27T21:45:25.404Z,1.50
2022-09-27T21:47:52.791Z,1.88
2022-09-27T21:50:20.158Z,1.40
2022-09-27T21:52:47.518Z,1.17
2022-09-27T21:55:16.238Z,1.45
2022-09-27T21:57:43.631Z,1.60
2022-09-27T22:00:11.514Z,1.23
2022-09-27T22:02:39.047Z,1.30
2022-09-27T22:05:06.814Z,1.40
2022-09-27T22:07:34.189Z,1.48
2022-09-27T22:10:01.560Z,1.50
2022-09-27T22:12:30.234Z,1.48
2022-09-27T22:14:57.601Z,1.60
2022-09-27T22:17:25.485Z,1.88
2022-09-27T22:19:52.898Z,1.80
2022-09-27T22:22:20.212Z,2.25
2022-09-27T22:24:47.620Z,1.70
2022-09-27T22:27:14.945Z,1.70
2022-09-27T22:29:43.648Z,1.48
2022-09-27T22:32:11.319Z,1.90
2022-09-27T22:34:38.703Z,1.70
2022-09-27T22:37:06.091Z,1.98
2022-09-27T22:39:33.899Z,1.80
2022-09-27T22:42:01.270Z,2.10
2022-09-27T22:44:28.590Z,1.80
2022-09-27T22:46:57.334Z,1.70
2022-09-27T22:49:24.693Z,1.77
2022-09-27T22:51:52.111Z,2.20
2022-09-27T22:54:19.932Z,1.98
2022-09-27T22:56:47.255Z,2.05
2022-09-27T22:59:14.750Z,2.10
2022-09-27T23:01:42.191Z,2.28
2022-09-27T23:04:11.007Z,2.40
2022-09-27T23:06:39.934Z,2.42
2022-09-27T23:09:07.256Z,2.08
2022-09-27T23:11:34.623Z,2.60
2022-09-27T23:14:04.723Z,2.15
2022-09-27T23:16:33.620Z,2.38
2022-09-27T23:19:01.404Z,2.20
2022-09-27T23:21:30.183Z,2.20
2022-09-27T23:23:59.578Z,2.30
2022-09-27T23:26:27.691Z,2.47
2022-09-27T23:28:55.787Z,2.15
2022-09-27T23:31:23.965Z,2.00
2022-09-27T23:33:51.990Z,2.30
2022-09-27T23:36:20.217Z,2.15
2022-09-27T23:38:49.231Z,2.47
2022-09-27T23:41:17.334Z,2.55
2022-09-27T23:43:45.394Z,2.17
2022-09-27T23:46:13.313Z,2.03
2022-09-27T23:48:40.801Z,2.30
2022-09-27T23:51:08.865Z,2.40
2022-09-27T23:53:36.463Z,2.38
2022-09-27T23:56:06.187Z,2.33
2022-09-27T23:58:34.137Z,2.20
